Historique des mesures à Cassis (13260), France
Quotidien Résumé Avril 3, 2018 Unités:  Métrique    US   Métrique/US
« Précédent (Jour)
Suivant (Jour) »
Quotidien Hebdomadaire Mensuel Annuel Période au choix
  Maximum: Minimum: Moyenne:
Température: TemperatureC °C 13.9 °C 15.5 °C
Point de rosée: DewpointC °C 2.5 °C 6.2 °C
Humidité: Humidity % 44 % 51 %
Vitesse du vent: 0 km/h 0 km/h 13.2 km/h
Rafales: 0 km/h - -
Vent:- - ESE
Pression: PressurehPa hPa 1005.3 hPa -
Précipitations: 0.0 mm    
Historical Graphs
 
 
Mesures pour : Avril 3, 2018
Heure Temperature Point de rosée Pression Vent Vitesse du vent Rafales Humidité Pluie (par heure) Conditions
TemperatureC °C DewpointC °C PressurehPa hPa Calm     Humidity % HourlyPrecipMM mm SoftwareType W/m2
00:10 13.9 °C 3.4 °C 1009.7 hPa ESE 11.6 km/h 14 km/h 49 % 0.0 mm open2300-1.11 W/m2
01:10 13.9 °C 3.7 °C 1009.7 hPa East 10.9 km/h 15.6 km/h 50 % 0.0 mm open2300-1.11 W/m2
02:10 14.3 °C 2.5 °C 1009.0 hPa ESE 11.6 km/h 14 km/h 45 % 0.0 mm open2300-1.11 W/m2
03:10 14.6 °C 3.4 °C 1008.4 hPa SE 15 km/h 16.3 km/h 47 % 0.0 mm open2300-1.11 W/m2
04:10 14.8 °C 2.6 °C 1008.0 hPa NE 6.4 km/h 6.4 km/h 44 % 0.0 mm open2300-1.11 W/m2
05:12 15.1 °C 3.2 °C 1007.7 hPa ENE 5.1 km/h 5.1 km/h 45 % 0.0 mm open2300-1.11 W/m2
06:12 15.1 °C 3.5 °C 1007.3 hPa Calm   19.6 km/h 46 % 0.0 mm open2300-1.11 W/m2
07:12 14.9 °C 4.3 °C 1007.3 hPa SE 11.6 km/h 15 km/h 49 % 0.0 mm open2300-1.11 W/m2
08:11 14.8 °C 4.5 °C 1007.3 hPa ENE 7.6 km/h 20.3 km/h 50 % 0.0 mm open2300-1.11 W/m2
09:12 15.1 °C 5.6 °C 1007.3 hPa ESE 12.2 km/h 12.2 km/h 53 % 0.0 mm open2300-1.11 W/m2
10:12 15.8 °C 6.5 °C 1007.0 hPa SE 9.8 km/h 26.7 km/h 54 % 0.0 mm open2300-1.11 W/m2
11:11 17.3 °C 7.3 °C 1007.7 hPa ESE 24.8 km/h 24.8 km/h 52 % 0.0 mm open2300-1.11 W/m2
12:12 18.4 °C 7.2 °C 1006.7 hPa ESE 17.9 km/h 23.8 km/h 48 % 0.0 mm open2300-1.11 W/m2
13:12 18.9 °C 7.7 °C 1006.7 hPa ESE 12.7 km/h 19.2 km/h 48 % 0.0 mm open2300-1.11 W/m2
14:11 19.7 °C 7.7 °C 1006.3 hPa ESE 22 km/h 22 km/h 46 % 0.0 mm open2300-1.11 W/m2
15:11 19.9 °C 7.9 °C 1006.0 hPa ESE 37 km/h 37 km/h 46 % 0.0 mm open2300-1.11 W/m2
16:10 19.0 °C 8.4 °C 1005.3 hPa ESE 8 km/h 23.8 km/h 50 % 0.0 mm open2300-1.11 W/m2
17:10 17.9 °C 8.4 °C 1006.0 hPa ESE 30.7 km/h 30.7 km/h 54 % 0.0 mm open2300-1.11 W/m2
18:10 16.9 °C 8.6 °C 1006.0 hPa SE 13.2 km/h 13.2 km/h 58 % 0.0 mm open2300-1.11 W/m2
19:10 16.1 °C 8.8 °C 1006.0 hPa ESE 20.3 km/h 20.3 km/h 62 % 0.0 mm open2300-1.11 W/m2
20:10 15.9 °C 9.3 °C 1006.0 hPa ESE 15 km/h 33.2 km/h 65 % 0.0 mm open2300-1.11 W/m2
21:10 15.6 °C 9.5 °C 1006.3 hPa South 10.3 km/h 15.6 km/h 67 % 0.0 mm open2300-1.11 W/m2
22:10 15.3 °C 9.7 °C 1007.0 hPa ESE 5.6 km/h 14 km/h 69 % 0.0 mm open2300-1.11 W/m2
23:10 15.3 °C 10.1 °C 1007.3 hPa ESE 9.8 km/h 10.9 km/h 71 % 0.0 mm open2300-1.11 W/m2
Observations météo à CASSIS
WU-History script by Weather Underground - 1 mb